createdAt,value
2018-11-12T00:01:06.006Z,88.51
2018-11-12T00:03:35.596Z,88.57
2018-11-12T00:06:04.543Z,88.30
2018-11-12T00:08:34.039Z,88.53
2018-11-12T00:11:02.924Z,88.29
2018-11-12T00:13:32.524Z,88.17
2018-11-12T00:16:01.436Z,88.81
2018-11-12T00:18:30.249Z,88.71
2018-11-12T00:20:59.322Z,88.79
2018-11-12T00:23:28.104Z,89.16
2018-11-12T00:25:57.275Z,89.21
2018-11-12T00:28:26.297Z,88.91
2018-11-12T00:30:55.771Z,88.94
2018-11-12T00:33:25.169Z,89.10
2018-11-12T00:35:54.698Z,89.06
2018-11-12T00:38:24.503Z,88.51
2018-11-12T00:40:54.318Z,89.19
2018-11-12T00:43:24.296Z,89.16
2018-11-12T00:45:53.615Z,88.97
2018-11-12T00:48:24.192Z,89.35
2018-11-12T00:50:54.693Z,88.69
2018-11-12T00:53:25.096Z,89.11
2018-11-12T00:55:54.686Z,89.06
2018-11-12T00:58:27.066Z,89.40
2018-11-12T01:00:57.417Z,89.15
2018-11-12T01:03:26.640Z,89.03
2018-11-12T01:05:57.969Z,88.58
2018-11-12T01:08:27.531Z,89.01
2018-11-12T01:10:56.500Z,88.91
2018-11-12T01:13:26.177Z,88.56
2018-11-12T01:15:55.744Z,89.17
2018-11-12T01:18:25.181Z,89.08
2018-11-12T01:20:54.519Z,88.56
2018-11-12T01:23:24.250Z,88.12
2018-11-12T01:25:54.260Z,88.29
2018-11-12T01:28:24.166Z,88.48
2018-11-12T01:30:57.309Z,88.06
2018-11-12T01:33:26.218Z,87.79
2018-11-12T01:35:56.246Z,87.87
2018-11-12T01:38:25.848Z,88.05
2018-11-12T01:40:55.658Z,87.62
2018-11-12T01:43:26.379Z,88.39
2018-11-12T01:45:57.166Z,87.94
2018-11-12T01:48:26.962Z,87.93
2018-11-12T01:50:57.631Z,87.78
2018-11-12T01:53:27.260Z,88.26
2018-11-12T01:55:57.374Z,88.18
2018-11-12T01:58:26.348Z,87.77
2018-11-12T02:00:57.109Z,87.78
2018-11-12T02:03:26.531Z,87.11
2018-11-12T02:05:56.118Z,87.23
2018-11-12T02:08:26.003Z,87.67
2018-11-12T02:10:56.376Z,87.20
2018-11-12T02:13:26.850Z,87.12
2018-11-12T02:15:56.024Z,87.37
2018-11-12T02:18:25.714Z,87.46
2018-11-12T02:20:55.626Z,87.64
2018-11-12T02:23:25.256Z,87.75
2018-11-12T02:25:54.655Z,87.21
2018-11-12T02:28:24.145Z,87.88
2018-11-12T02:30:53.496Z,87.64
2018-11-12T02:33:22.865Z,88.07
2018-11-12T02:35:52.163Z,88.30
2018-11-12T02:38:21.034Z,88.87
2018-11-12T02:40:49.814Z,88.82
2018-11-12T02:43:19.426Z,88.93
2018-11-12T02:45:48.199Z,88.63
2018-11-12T02:48:16.978Z,89.29
2018-11-12T02:50:46.535Z,88.67
2018-11-12T02:53:16.166Z,89.08
2018-11-12T02:55:45.560Z,89.23
2018-11-12T02:58:15.127Z,89.38
2018-11-12T03:00:44.286Z,89.31
2018-11-12T03:03:13.562Z,89.47
2018-11-12T03:05:43.151Z,89.27
2018-11-12T03:08:11.943Z,89.46
2018-11-12T03:10:40.685Z,89.17
2018-11-12T03:13:10.360Z,89.54
2018-11-12T03:15:39.196Z,89.06
2018-11-12T03:18:08.651Z,89.77
2018-11-12T03:20:37.555Z,89.46
2018-11-12T03:23:06.466Z,90.06
2018-11-12T03:25:35.432Z,89.19
2018-11-12T03:28:04.498Z,89.53
2018-11-12T03:30:34.076Z,89.16
2018-11-12T03:33:03.015Z,89.42
2018-11-12T03:35:31.994Z,89.65
2018-11-12T03:38:01.283Z,89.03
2018-11-12T03:40:30.087Z,89.54
2018-11-12T03:43:00.524Z,89.44
2018-11-12T03:45:29.351Z,89.46
2018-11-12T03:47:59.211Z,89.82
2018-11-12T03:50:28.920Z,89.77
2018-11-12T03:52:58.776Z,89.88
2018-11-12T03:55:28.085Z,90.00
2018-11-12T03:58:01.255Z,89.17
2018-11-12T04:00:32.553Z,89.51
2018-11-12T04:03:01.540Z,89.29
2018-11-12T04:05:30.457Z,89.35
2018-11-12T04:08:00.517Z,89.66
2018-11-12T04:10:29.466Z,89.26
2018-11-12T04:12:59.249Z,89.35
2018-11-12T04:15:28.202Z,89.31
2018-11-12T04:17:57.581Z,89.00
2018-11-12T04:20:26.622Z,89.51
2018-11-12T04:23:06.568Z,89.02
2018-11-12T04:25:37.591Z,89.12
2018-11-12T04:28:07.852Z,89.20
2018-11-12T04:30:37.035Z,89.59
2018-11-12T04:33:06.231Z,89.08
2018-11-12T04:35:35.239Z,88.67
2018-11-12T04:38:04.662Z,88.47
2018-11-12T04:40:33.541Z,88.55
2018-11-12T04:43:03.336Z,88.80
2018-11-12T04:45:32.185Z,88.38
2018-11-12T04:48:01.772Z,88.61
2018-11-12T04:50:31.384Z,88.73
2018-11-12T04:53:01.125Z,89.06
2018-11-12T04:55:30.912Z,89.01
2018-11-12T04:58:00.849Z,89.61
2018-11-12T05:00:30.366Z,89.62
2018-11-12T05:03:00.092Z,90.08
2018-11-12T05:05:29.677Z,89.92
2018-11-12T05:07:59.040Z,90.31
2018-11-12T05:10:28.266Z,90.16
2018-11-12T05:12:58.546Z,89.76
2018-11-12T05:15:27.623Z,90.07
2018-11-12T05:17:56.462Z,90.67
2018-11-12T05:20:27.585Z,90.02
2018-11-12T05:22:56.418Z,90.54
2018-11-12T05:25:25.693Z,90.73
2018-11-12T05:27:55.708Z,90.56
2018-11-12T05:30:26.460Z,90.60
2018-11-12T05:32:56.469Z,90.64
2018-11-12T05:35:26.906Z,90.31
2018-11-12T05:37:55.912Z,90.72
2018-11-12T05:40:29.462Z,90.00
2018-11-12T05:42:59.820Z,90.11
2018-11-12T05:45:29.601Z,90.23
2018-11-12T05:47:58.883Z,90.03
2018-11-12T05:50:29.872Z,90.22
2018-11-12T05:53:01.652Z,89.93
2018-11-12T05:55:31.884Z,90.53
2018-11-12T05:58:02.448Z,90.06
2018-11-12T06:00:35.205Z,90.26
2018-11-12T06:03:04.068Z,90.46
2018-11-12T06:05:33.584Z,90.45
2018-11-12T06:08:03.341Z,91.23
2018-11-12T06:10:33.125Z,90.84
2018-11-12T06:13:02.866Z,90.66
2018-11-12T06:15:31.702Z,91.18
2018-11-12T06:18:00.519Z,91.12
2018-11-12T06:20:30.664Z,91.13
2018-11-12T06:22:59.616Z,91.26
2018-11-12T06:25:29.924Z,91.31
2018-11-12T06:27:58.959Z,91.55
2018-11-12T06:30:29.124Z,91.94
2018-11-12T06:32:57.911Z,91.51
2018-11-12T06:35:26.722Z,91.70
2018-11-12T06:37:56.193Z,91.42
2018-11-12T06:40:27.163Z,92.15
2018-11-12T06:42:56.907Z,91.69
2018-11-12T06:45:27.522Z,91.65
2018-11-12T06:47:56.911Z,92.37
2018-11-12T06:50:27.691Z,91.83
2018-11-12T06:52:57.460Z,91.85
2018-11-12T06:55:26.892Z,91.66
2018-11-12T06:57:56.567Z,91.71
2018-11-12T07:00:30.941Z,91.46
2018-11-12T07:02:59.781Z,91.70
2018-11-12T07:05:30.171Z,90.96
2018-11-12T07:07:59.666Z,91.15
2018-11-12T07:10:29.364Z,90.51
2018-11-12T07:12:59.624Z,90.87
2018-11-12T07:15:28.994Z,90.27
2018-11-12T07:17:57.990Z,90.40
2018-11-12T07:20:27.678Z,89.60
2018-11-12T07:22:56.526Z,90.27
2018-11-12T07:25:27.359Z,90.11
2018-11-12T07:27:56.471Z,90.42
2018-11-12T07:30:26.555Z,90.26
2018-11-12T07:32:57.279Z,90.04
2018-11-12T07:35:26.681Z,89.55
2018-11-12T07:37:59.700Z,89.79
2018-11-12T07:40:28.608Z,89.73
2018-11-12T07:42:58.014Z,90.56
2018-11-12T07:45:28.208Z,90.39
2018-11-12T07:47:57.578Z,90.67
2018-11-12T07:50:28.434Z,90.31
2018-11-12T07:53:01.238Z,90.45
2018-11-12T07:55:30.668Z,90.09
2018-11-12T07:58:00.867Z,90.57
2018-11-12T08:00:31.552Z,90.35
2018-11-12T08:03:09.547Z,90.54
2018-11-12T08:05:38.626Z,90.17
2018-11-12T08:08:10.911Z,90.86
2018-11-12T08:10:39.834Z,90.07
2018-11-12T08:13:09.218Z,90.04
2018-11-12T08:15:38.034Z,90.18
2018-11-12T08:18:07.117Z,89.54
2018-11-12T08:20:36.038Z,89.21
2018-11-12T08:23:05.073Z,89.25
2018-11-12T08:25:34.269Z,89.03
2018-11-12T08:28:03.296Z,88.86
2018-11-12T08:30:32.297Z,88.79
2018-11-12T08:33:02.135Z,88.63
2018-11-12T08:35:31.076Z,88.79
2018-11-12T08:38:00.491Z,88.85
2018-11-12T08:40:30.622Z,88.26
2018-11-12T08:43:00.081Z,88.36
2018-11-12T08:45:29.026Z,88.09
2018-11-12T08:47:58.353Z,87.92
2018-11-12T08:50:28.476Z,88.28
2018-11-12T08:52:58.262Z,87.58
2018-11-12T08:55:29.320Z,87.74
2018-11-12T08:58:01.295Z,87.06
2018-11-12T09:00:31.042Z,87.40
2018-11-12T09:03:00.161Z,86.87
2018-11-12T09:05:30.301Z,87.40
2018-11-12T09:08:01.183Z,86.55
2018-11-12T09:10:31.343Z,86.30
2018-11-12T09:13:00.926Z,86.00
2018-11-12T09:15:29.919Z,85.96
2018-11-12T09:17:59.156Z,85.24
2018-11-12T09:20:28.975Z,85.21
2018-11-12T09:22:57.845Z,85.70
2018-11-12T09:25:27.875Z,85.57
2018-11-12T09:27:56.869Z,85.66
2018-11-12T09:30:27.985Z,84.05
2018-11-12T09:32:56.931Z,84.46
2018-11-12T09:35:27.959Z,83.97
2018-11-12T09:37:58.519Z,83.58
2018-11-12T09:40:31.729Z,83.03
2018-11-12T09:43:01.737Z,83.13
2018-11-12T09:45:30.684Z,83.10
2018-11-12T09:48:00.388Z,82.60
2018-11-12T09:50:31.167Z,82.28
2018-11-12T09:53:01.067Z,82.89
2018-11-12T09:55:31.993Z,82.19
2018-11-12T09:58:05.824Z,82.48
2018-11-12T10:00:35.760Z,82.47
2018-11-12T10:03:05.931Z,82.78
2018-11-12T10:05:35.221Z,81.90
2018-11-12T10:08:15.212Z,81.68
2018-11-12T10:10:47.626Z,82.40
2018-11-12T10:13:21.415Z,81.77
2018-11-12T10:15:50.273Z,82.67
2018-11-12T10:18:16.327Z,82.26
2018-11-12T10:20:45.203Z,81.17
2018-11-12T10:23:15.170Z,81.06
2018-11-12T10:25:44.278Z,80.82
2018-11-12T10:28:27.910Z,80.52
2018-11-12T10:30:56.992Z,80.37
2018-11-12T10:33:26.034Z,79.77
2018-11-12T10:35:55.996Z,79.47
2018-11-12T10:38:25.616Z,80.14
2018-11-12T10:40:55.201Z,79.28
2018-11-12T10:43:29.035Z,79.11
2018-11-12T10:45:58.003Z,79.43
2018-11-12T10:48:26.944Z,79.15
2018-11-12T10:51:04.929Z,79.32
2018-11-12T10:53:26.451Z,77.77
2018-11-12T10:55:56.918Z,77.71
2018-11-12T10:58:31.163Z,77.08
2018-11-12T11:01:05.837Z,77.17
2018-11-12T11:03:50.502Z,76.69
2018-11-12T11:06:19.393Z,77.33
2018-11-12T11:08:49.015Z,76.85
2018-11-12T11:11:17.930Z,77.44
2018-11-12T11:13:47.686Z,77.22
2018-11-12T11:16:16.723Z,76.83
2018-11-12T11:18:45.842Z,75.94
2018-11-12T11:21:14.903Z,75.17
2018-11-12T11:23:44.588Z,74.54
2018-11-12T11:26:13.808Z,74.81
2018-11-12T11:28:42.935Z,73.72
2018-11-12T11:31:13.113Z,73.56
2018-11-12T11:33:42.237Z,73.34
2018-11-12T11:36:11.228Z,73.31
2018-11-12T11:38:40.202Z,72.94
2018-11-12T11:41:09.241Z,73.41
2018-11-12T11:43:38.998Z,73.96
2018-11-12T11:46:08.144Z,73.98
2018-11-12T11:48:36.971Z,74.47
2018-11-12T11:51:06.544Z,74.95
2018-11-12T11:53:36.004Z,73.90
2018-11-12T11:56:05.943Z,74.44
2018-11-12T11:58:34.801Z,74.65
2018-11-12T12:01:04.998Z,74.67
2018-11-12T12:03:33.835Z,75.17
2018-11-12T12:06:02.618Z,75.12
2018-11-12T12:08:32.122Z,75.72
2018-11-12T12:11:01.123Z,75.79
2018-11-12T12:13:30.613Z,75.50
2018-11-12T12:16:05.542Z,76.11
2018-11-12T12:18:34.620Z,75.76
2018-11-12T12:21:03.805Z,76.79
2018-11-12T12:23:32.805Z,76.07
2018-11-12T12:26:01.966Z,76.60
2018-11-12T12:28:30.826Z,76.18
2018-11-12T12:31:10.923Z,76.63
2018-11-12T12:33:40.187Z,77.45
2018-11-12T12:36:09.302Z,77.07
2018-11-12T12:38:38.143Z,77.47
2018-11-12T12:41:07.639Z,77.73
2018-11-12T12:43:37.041Z,78.35
2018-11-12T12:46:06.407Z,77.34
2018-11-12T12:48:35.406Z,77.75
2018-11-12T12:51:05.160Z,78.18
2018-11-12T12:53:34.669Z,77.34
2018-11-12T12:56:04.495Z,77.08
2018-11-12T12:58:33.440Z,77.38
2018-11-12T13:01:03.005Z,77.59
2018-11-12T13:03:31.901Z,77.42
2018-11-12T13:06:00.898Z,77.30
2018-11-12T13:08:30.730Z,77.71
2018-11-12T13:10:59.633Z,78.27
2018-11-12T13:13:28.892Z,78.08
2018-11-12T13:15:57.836Z,78.19
2018-11-12T13:18:26.702Z,78.44
2018-11-12T13:20:55.799Z,78.32
2018-11-12T13:23:25.439Z,78.48
2018-11-12T13:25:55.498Z,78.92
2018-11-12T13:28:26.150Z,79.32
2018-11-12T13:30:55.899Z,78.57
2018-11-12T13:33:25.750Z,79.03
2018-11-12T13:35:55.372Z,79.15
2018-11-12T13:38:24.928Z,78.35
2018-11-12T13:40:54.451Z,78.59
2018-11-12T13:43:25.999Z,78.93
2018-11-12T13:45:55.859Z,79.56
2018-11-12T13:48:25.534Z,79.22
2018-11-12T13:50:55.582Z,79.29
2018-11-12T13:53:25.926Z,79.29
2018-11-12T13:55:55.728Z,79.85
2018-11-12T13:58:25.301Z,80.04
2018-11-12T14:00:55.298Z,80.59
2018-11-12T14:03:25.107Z,80.23
2018-11-12T14:05:54.846Z,80.15
2018-11-12T14:08:25.013Z,80.77
2018-11-12T14:10:54.339Z,80.82
2018-11-12T14:13:24.739Z,81.81
2018-11-12T14:15:54.598Z,81.34
2018-11-12T14:18:24.459Z,81.75
2018-11-12T14:20:54.220Z,81.96
2018-11-12T14:23:23.406Z,81.87
2018-11-12T14:25:53.310Z,82.22
2018-11-12T14:28:23.312Z,82.39
2018-11-12T14:30:53.264Z,81.98
2018-11-12T14:33:22.512Z,82.20
2018-11-12T14:35:51.335Z,82.86
2018-11-12T14:38:23.789Z,82.79
2018-11-12T14:40:52.864Z,82.54
2018-11-12T14:43:23.801Z,82.56
2018-11-12T14:45:53.014Z,82.35
2018-11-12T14:48:22.417Z,82.03
2018-11-12T14:50:52.994Z,82.74
2018-11-12T14:53:22.821Z,82.57
2018-11-12T14:55:52.707Z,83.01
2018-11-12T14:58:23.202Z,82.79
2018-11-12T15:00:52.913Z,83.18
2018-11-12T15:03:22.716Z,82.83
2018-11-12T15:05:53.180Z,83.17
2018-11-12T15:08:23.255Z,83.45
2018-11-12T15:10:52.867Z,83.06
2018-11-12T15:13:23.197Z,83.63
2018-11-12T15:15:52.645Z,83.10
2018-11-12T15:18:21.709Z,83.75
2018-11-12T15:20:50.498Z,84.09
2018-11-12T15:23:24.717Z,83.25
2018-11-12T15:25:55.435Z,83.64
2018-11-12T15:28:24.789Z,83.59
2018-11-12T15:30:54.342Z,83.92
2018-11-12T15:33:26.064Z,83.54
2018-11-12T15:35:56.027Z,83.79
2018-11-12T15:38:25.784Z,83.84
2018-11-12T15:40:55.231Z,84.19
2018-11-12T15:43:26.025Z,84.00
2018-11-12T15:45:55.752Z,83.77
2018-11-12T15:48:26.859Z,84.29
2018-11-12T15:50:56.380Z,84.00
2018-11-12T15:53:28.207Z,84.50
2018-11-12T15:55:57.730Z,84.30
2018-11-12T15:58:26.678Z,84.65
2018-11-12T16:00:56.244Z,84.85
2018-11-12T16:03:25.962Z,84.32
2018-11-12T16:05:55.522Z,84.75
2018-11-12T16:08:25.647Z,84.31
2018-11-12T16:10:55.482Z,84.70
2018-11-12T16:13:25.846Z,84.45
2018-11-12T16:15:55.263Z,84.56
2018-11-12T16:18:24.767Z,84.72
2018-11-12T16:20:55.031Z,85.01
2018-11-12T16:23:24.579Z,85.33
2018-11-12T16:25:53.930Z,85.21
2018-11-12T16:28:24.467Z,85.66
2018-11-12T16:30:54.314Z,85.16
2018-11-12T16:33:24.127Z,85.36
2018-11-12T16:35:53.248Z,85.65
2018-11-12T16:38:23.377Z,85.23
2018-11-12T16:40:52.705Z,85.44
2018-11-12T16:43:22.638Z,85.85
2018-11-12T16:45:51.439Z,85.78
2018-11-12T16:48:20.204Z,85.58
2018-11-12T16:50:50.018Z,86.08
2018-11-12T16:53:19.575Z,86.22
2018-11-12T16:55:48.919Z,86.51
2018-11-12T16:58:17.742Z,86.36
2018-11-12T17:00:47.220Z,86.79
2018-11-12T17:03:16.081Z,86.78
2018-11-12T17:05:44.924Z,86.07
2018-11-12T17:08:14.850Z,86.83
2018-11-12T17:10:43.630Z,86.07
2018-11-12T17:13:13.143Z,86.77
2018-11-12T17:15:41.936Z,86.41
2018-11-12T17:18:11.294Z,86.07
2018-11-12T17:20:40.082Z,86.42
2018-11-12T17:23:08.880Z,85.84
2018-11-12T17:25:37.730Z,86.29
2018-11-12T17:28:10.133Z,86.55
2018-11-12T17:30:39.112Z,86.75
2018-11-12T17:33:07.911Z,86.03
2018-11-12T17:35:36.795Z,86.48
2018-11-12T17:38:05.907Z,86.58
2018-11-12T17:40:35.368Z,86.57
2018-11-12T17:43:04.860Z,86.23
2018-11-12T17:45:33.691Z,86.61
2018-11-12T17:48:02.469Z,86.65
2018-11-12T17:50:31.751Z,86.55
2018-11-12T17:53:00.586Z,86.14
2018-11-12T17:55:30.143Z,86.12
2018-11-12T17:58:00.472Z,86.61
2018-11-12T18:00:33.056Z,86.56
2018-11-12T18:03:02.145Z,86.19
2018-11-12T18:05:30.906Z,86.52
2018-11-12T18:08:00.586Z,86.67
2018-11-12T18:10:29.411Z,86.81
2018-11-12T18:12:58.806Z,86.33
2018-11-12T18:15:28.450Z,86.81
2018-11-12T18:17:57.270Z,86.70
2018-11-12T18:20:27.255Z,86.78
2018-11-12T18:22:56.791Z,86.91
2018-11-12T18:25:25.737Z,87.02
2018-11-12T18:27:56.149Z,86.71
2018-11-12T18:30:27.486Z,86.86
2018-11-12T18:32:57.868Z,86.83
2018-11-12T18:35:26.963Z,86.71
2018-11-12T18:37:56.363Z,86.57
2018-11-12T18:40:27.281Z,86.69
2018-11-12T18:42:57.598Z,86.24
2018-11-12T18:45:27.476Z,86.74
2018-11-12T18:47:56.858Z,86.58
2018-11-12T18:50:28.676Z,86.54
2018-11-12T18:52:58.153Z,86.31
2018-11-12T18:55:27.701Z,86.26
2018-11-12T18:57:57.402Z,86.65
2018-11-12T19:00:27.416Z,86.64
2018-11-12T19:02:56.530Z,86.61
2018-11-12T19:05:28.931Z,86.26
2018-11-12T19:08:00.719Z,86.84
2018-11-12T19:10:30.869Z,86.11
2018-11-12T19:13:00.288Z,86.77
2018-11-12T19:15:30.665Z,86.50
2018-11-12T19:18:01.171Z,85.73
2018-11-12T19:20:30.630Z,86.03
2018-11-12T19:22:59.991Z,86.09
2018-11-12T19:25:29.262Z,85.74
2018-11-12T19:27:58.236Z,86.15
2018-11-12T19:30:27.998Z,85.62
2018-11-12T19:32:57.294Z,86.00
2018-11-12T19:35:28.585Z,85.91
2018-11-12T19:37:57.470Z,85.68
2018-11-12T19:40:28.718Z,85.60
2018-11-12T19:42:58.804Z,85.79
2018-11-12T19:45:27.752Z,86.30
2018-11-12T19:47:56.806Z,85.96
2018-11-12T19:50:27.698Z,85.71
2018-11-12T19:52:58.393Z,85.52
2018-11-12T19:55:28.115Z,85.49
2018-11-12T19:57:57.750Z,85.27
2018-11-12T20:00:28.535Z,85.03
2018-11-12T20:02:58.849Z,85.19
2018-11-12T20:05:27.694Z,86.13
2018-11-12T20:07:57.103Z,85.65
2018-11-12T20:10:26.813Z,85.90
2018-11-12T20:12:56.479Z,85.67
2018-11-12T20:15:26.318Z,85.92
2018-11-12T20:17:56.740Z,85.31
2018-11-12T20:20:28.153Z,85.53
2018-11-12T20:22:57.362Z,86.17
2018-11-12T20:25:26.346Z,85.63
2018-11-12T20:27:56.439Z,85.40
2018-11-12T20:30:32.071Z,85.69
2018-11-12T20:33:01.465Z,85.77
2018-11-12T20:35:30.367Z,85.70
2018-11-12T20:37:59.255Z,85.24
2018-11-12T20:40:28.787Z,85.82
2018-11-12T20:42:58.232Z,85.27
2018-11-12T20:45:27.223Z,85.88
2018-11-12T20:47:57.089Z,86.28
2018-11-12T20:50:26.836Z,86.27
2018-11-12T20:52:56.502Z,86.24
2018-11-12T20:55:26.399Z,86.64
2018-11-12T20:57:56.015Z,86.79
2018-11-12T21:00:27.328Z,86.93
2018-11-12T21:02:56.455Z,87.49
2018-11-12T21:05:27.512Z,87.01
2018-11-12T21:07:57.064Z,87.11
2018-11-12T21:10:26.035Z,87.41
2018-11-12T21:12:56.927Z,87.48
2018-11-12T21:15:26.574Z,86.58
2018-11-12T21:17:55.604Z,87.00
2018-11-12T21:20:27.169Z,87.04
2018-11-12T21:22:56.301Z,87.18
2018-11-12T21:25:26.881Z,86.65
2018-11-12T21:27:55.856Z,87.11
2018-11-12T21:30:28.770Z,86.39
2018-11-12T21:32:57.701Z,86.93
2018-11-12T21:35:26.815Z,86.56
2018-11-12T21:37:57.198Z,86.40
2018-11-12T21:40:27.762Z,86.38
2018-11-12T21:42:57.461Z,87.12
2018-11-12T21:45:28.070Z,86.43
2018-11-12T21:47:56.974Z,86.78
2018-11-12T21:50:26.447Z,87.35
2018-11-12T21:52:55.475Z,87.30
2018-11-12T21:55:25.242Z,87.52
2018-11-12T21:57:55.361Z,87.51
2018-11-12T22:00:26.639Z,87.57
2018-11-12T22:02:59.814Z,87.62
2018-11-12T22:05:30.204Z,88.13
2018-11-12T22:07:59.726Z,87.64
2018-11-12T22:10:28.543Z,87.28
2018-11-12T22:12:57.825Z,87.25
2018-11-12T22:15:26.711Z,86.87
2018-11-12T22:17:55.571Z,87.01
2018-11-12T22:20:26.754Z,86.90
2018-11-12T22:22:55.770Z,86.82
2018-11-12T22:25:25.437Z,86.87
2018-11-12T22:27:55.423Z,87.14
2018-11-12T22:30:26.564Z,87.02
2018-11-12T22:32:56.729Z,87.59
2018-11-12T22:35:26.093Z,86.95
2018-11-12T22:37:55.909Z,86.69
2018-11-12T22:40:26.529Z,87.10
2018-11-12T22:42:56.341Z,86.26
2018-11-12T22:45:26.132Z,87.18
2018-11-12T22:47:56.056Z,86.82
2018-11-12T22:50:25.861Z,87.14
2018-11-12T22:52:55.720Z,87.08
2018-11-12T22:55:25.647Z,87.28
2018-11-12T22:57:56.085Z,87.35
2018-11-12T23:00:32.047Z,87.65
2018-11-12T23:03:01.661Z,87.59
2018-11-12T23:05:31.154Z,87.54
2018-11-12T23:08:01.392Z,87.89
2018-11-12T23:10:30.321Z,87.91
2018-11-12T23:13:00.602Z,88.62
2018-11-12T23:15:30.536Z,88.53
2018-11-12T23:18:00.372Z,88.34
2018-11-12T23:20:29.901Z,88.42
2018-11-12T23:22:59.744Z,88.43
2018-11-12T23:25:28.715Z,88.35
2018-11-12T23:27:58.519Z,87.69
2018-11-12T23:30:27.531Z,87.72
2018-11-12T23:32:56.598Z,88.24
2018-11-12T23:35:26.302Z,87.94
2018-11-12T23:37:55.709Z,87.05
2018-11-12T23:40:26.206Z,87.69
2018-11-12T23:42:55.379Z,87.50
2018-11-12T23:45:25.919Z,86.96
2018-11-12T23:47:56.035Z,87.09
2018-11-12T23:50:26.253Z,87.67
2018-11-12T23:52:55.537Z,86.88
2018-11-12T23:55:25.467Z,86.88
2018-11-12T23:57:56.147Z,86.84
